Time;durP1;ratioP1;P1;durP2;ratioP2;P2;SDS_P1;SDS_P2;PMS_P1;PMS_P2;Temp;Humidity;BMP_temperature;BMP_pressure;BME280_temperature;BME280_humidity;BME280_pressure;Samples;Min_cycle;Max_cycle;Signal;HPM_P1;HPM_P2
2023/10/01 00:00:29;;;;;;;11.32;5.03;;;;;;;16.18;100.00;95181.25;5055203;28;20094;-79
2023/10/01 00:02:58;;;;;;;7.43;4.13;;;;;;;16.16;100.00;95188.69;5055361;28;20123;-79
2023/10/01 00:05:25;;;;;;;11.40;5.00;;;;;;;15.95;100.00;95181.00;5055417;28;20024;-79
2023/10/01 00:07:51;;;;;;;14.63;6.00;;;;;;;15.93;100.00;95192.91;5055058;28;20122;-79
2023/10/01 00:10:18;;;;;;;9.05;4.45;;;;;;;16.00;100.00;95190.72;5054615;28;20024;-79
2023/10/01 00:12:46;;;;;;;9.30;4.90;;;;;;;15.94;100.00;95195.28;5054984;28;20276;-79
2023/10/01 00:15:14;;;;;;;8.32;5.32;;;;;;;15.94;100.00;95197.94;5038039;28;20032;-79
2023/10/01 00:17:40;;;;;;;12.13;5.30;;;;;;;15.98;100.00;95198.13;5038262;28;20055;-79
2023/10/01 00:20:25;;;;;;;10.55;4.65;;;;;;;15.97;100.00;95194.72;5054648;28;20032;-79
2023/10/01 00:22:57;;;;;;;8.85;4.60;;;;;;;15.86;100.00;95198.50;5056516;28;20061;-79
2023/10/01 00:25:23;;;;;;;8.10;4.32;;;;;;;15.90;100.00;95198.75;5054626;28;20037;-79
2023/10/01 00:27:49;;;;;;;5.93;4.28;;;;;;;15.98;100.00;95184.91;5055752;28;20042;-79
2023/10/01 00:30:15;;;;;;;11.63;4.63;;;;;;;16.03;100.00;95184.88;5054283;28;20033;-79
2023/10/01 00:32:41;;;;;;;7.68;4.15;;;;;;;16.15;100.00;95188.97;5054651;28;20033;-79
2023/10/01 00:35:07;;;;;;;9.77;5.10;;;;;;;16.02;100.00;95185.94;5054464;28;20032;-79
2023/10/01 00:37:34;;;;;;;9.50;4.78;;;;;;;16.02;100.00;95193.06;5054670;28;20055;-79
2023/10/01 00:40:00;;;;;;;12.80;4.90;;;;;;;16.09;100.00;95188.25;5071520;28;20021;-80
2023/10/01 00:42:29;;;;;;;8.18;4.43;;;;;;;16.08;100.00;95189.31;5054366;28;20081;-79
2023/10/01 00:44:57;;;;;;;9.20;4.63;;;;;;;15.99;100.00;95186.50;5038094;28;20094;-79
2023/10/01 00:47:24;;;;;;;9.63;4.78;;;;;;;16.00;100.00;95188.09;5054230;28;20492;-79
2023/10/01 00:49:51;;;;;;;7.80;4.78;;;;;;;16.03;100.00;95184.06;5051209;28;20032;-79
2023/10/01 00:52:20;;;;;;;8.65;4.40;;;;;;;15.97;100.00;95180.69;5054381;28;20422;-79
2023/10/01 00:54:48;;;;;;;11.20;4.75;;;;;;;15.96;100.00;95187.84;5053761;28;20062;-79
2023/10/01 00:57:17;;;;;;;12.23;4.65;;;;;;;16.03;100.00;95181.44;5053491;28;20059;-79
2023/10/01 00:59:47;;;;;;;8.88;4.78;;;;;;;16.07;100.00;95182.47;5053491;28;20036;-79
2023/10/01 01:02:15;;;;;;;11.48;4.75;;;;;;;16.13;100.00;95188.44;5053694;28;20028;-79
2023/10/01 01:04:59;;;;;;;8.57;4.97;;;;;;;16.27;100.00;95180.63;5053989;28;20342;-79
2023/10/01 01:07:24;;;;;;;12.38;5.30;;;;;;;16.20;100.00;95192.31;5035299;28;20033;-79
2023/10/01 01:09:50;;;;;;;12.57;4.90;;;;;;;16.13;100.00;95186.63;5054668;28;20099;-79
2023/10/01 01:12:15;;;;;;;10.75;4.68;;;;;;;16.19;100.00;95190.75;5055115;28;20040;-79
2023/10/01 01:14:44;;;;;;;13.10;5.28;;;;;;;16.22;100.00;95187.56;5054025;28;20038;-79
2023/10/01 01:17:13;;;;;;;7.95;4.68;;;;;;;16.16;100.00;95186.03;5053330;28;20028;-79
2023/10/01 01:19:39;;;;;;;12.98;4.85;;;;;;;16.22;100.00;95182.28;5052958;28;20079;-79
2023/10/01 01:22:05;;;;;;;10.23;4.88;;;;;;;16.23;100.00;95186.50;5052788;28;20032;-79
2023/10/01 01:24:30;;;;;;;10.73;5.07;;;;;;;16.09;100.00;95178.44;5053330;28;20056;-79
2023/10/01 01:27:00;;;;;;;8.75;4.75;;;;;;;16.00;100.00;95182.81;5036866;28;20041;-79
2023/10/01 01:29:33;;;;;;;7.85;4.70;;;;;;;16.01;100.00;95178.28;5037666;28;20036;-80
2023/10/01 01:32:13;;;;;;;12.88;5.20;;;;;;;16.09;100.00;95175.81;5054548;28;20048;-79
2023/10/01 01:34:45;;;;;;;10.80;5.18;;;;;;;16.05;100.00;95176.66;5053806;28;20032;-79
2023/10/01 01:37:36;;;;;;;9.93;4.65;;;;;;;15.82;100.00;95185.03;5054693;28;20106;-79
2023/10/01 01:40:09;;;;;;;10.18;5.05;;;;;;;15.82;100.00;95184.28;5052794;28;20021;-80
2023/10/01 01:42:34;;;;;;;12.17;5.17;;;;;;;15.95;100.00;95174.91;5053343;28;20163;-79
2023/10/01 01:45:18;;;;;;;12.43;5.35;;;;;;;15.88;100.00;95180.50;5053235;28;20451;-79
2023/10/01 01:47:44;;;;;;;;;;;;;;;15.69;100.00;95177.78;5056636;28;20746;-79
2023/10/01 01:50:19;;;;;;;8.35;4.60;;;;;;;15.68;100.00;95184.13;5053426;28;19920;-79
2023/10/01 01:52:51;;;;;;;9.00;4.78;;;;;;;15.67;100.00;95186.00;5053376;28;20025;-79
2023/10/01 01:55:27;;;;;;;6.60;4.87;;;;;;;15.59;100.00;95183.97;5037394;28;20017;-79
2023/10/01 01:58:09;;;;;;;10.05;5.10;;;;;;;15.47;100.00;95186.97;5053370;28;20426;-79
2023/10/01 02:00:46;;;;;;;9.68;5.50;;;;;;;15.32;100.00;95185.25;5055172;28;20433;-79
2023/10/01 02:03:14;;;;;;;11.43;5.90;;;;;;;15.32;100.00;95179.19;5055259;28;20035;-79
2023/10/01 02:05:47;;;;;;;8.88;5.25;;;;;;;15.37;100.00;95187.88;5053482;28;20392;-79
2023/10/01 02:08:34;;;;;;;11.45;5.07;;;;;;;15.30;100.00;95187.38;5053253;28;20390;-79
2023/10/01 02:11:05;;;;;;;12.73;5.47;;;;;;;15.41;100.00;95183.59;5053767;28;20369;-79
2023/10/01 02:13:32;;;;;;;10.88;5.10;;;;;;;15.51;100.00;95188.00;5054502;28;20071;-79
2023/10/01 02:16:18;;;;;;;8.25;4.28;;;;;;;15.45;100.00;95188.31;5054709;28;20035;-79
2023/10/01 02:18:43;;;;;;;10.20;5.35;;;;;;;15.40;100.00;95183.84;5053291;28;20064;-80
2023/10/01 02:21:16;;;;;;;11.75;5.43;;;;;;;15.40;100.00;95182.03;5053150;28;20110;-79
2023/10/01 02:23:41;;;;;;;;;;;;;;;15.52;100.00;95188.78;5054007;28;20630;-79
2023/10/01 02:26:07;;;;;;;9.63;4.78;;;;;;;15.55;100.00;95188.22;5054680;28;19998;-79
2023/10/01 02:28:33;;;;;;;12.45;5.70;;;;;;;15.67;100.00;95186.00;5053358;28;20025;-79
2023/10/01 02:31:00;;;;;;;10.60;5.25;;;;;;;15.79;100.00;95182.19;5054403;28;20436;-79
2023/10/01 02:34:14;;;;;;;13.25;5.50;;;;;;;15.76;100.00;95186.19;5057555;28;20032;-79
2023/10/01 02:36:12;;;;;;;13.10;5.93;;;;;;;15.79;100.00;95187.50;5043054;28;20102;-79
2023/10/01 02:38:45;;;;;;;8.98;5.70;;;;;;;15.74;100.00;95184.88;5056976;28;20737;-79
2023/10/01 02:41:14;;;;;;;7.40;5.20;;;;;;;15.53;100.00;95187.72;5056800;28;20028;-79
2023/10/01 02:43:45;;;;;;;8.23;5.22;;;;;;;15.46;100.00;95185.41;5057970;28;20294;-79
2023/10/01 02:46:12;;;;;;;10.07;5.25;;;;;;;15.32;100.00;95182.59;5056804;28;20025;-79
2023/10/01 02:48:42;;;;;;;12.27;5.55;;;;;;;15.22;100.00;95180.84;5056899;28;20024;-79
2023/10/01 02:51:14;;;;;;;11.63;5.22;;;;;;;15.31;100.00;95180.25;5058362;28;20032;-79
2023/10/01 02:54:01;;;;;;;13.65;5.47;;;;;;;15.16;100.00;95176.69;5058586;28;20033;-79
2023/10/01 02:56:33;;;;;;;16.10;5.53;;;;;;;15.16;100.00;95184.59;5058696;28;20028;-79
2023/10/01 02:59:11;;;;;;;8.07;5.20;;;;;;;15.23;100.00;95177.13;5058296;28;20016;-79
2023/10/01 03:01:38;;;;;;;8.80;5.18;;;;;;;15.23;100.00;95181.66;5042599;28;20457;-79
2023/10/01 03:04:10;;;;;;;9.13;5.50;;;;;;;15.22;100.00;95182.72;5058268;28;20051;-79
2023/10/01 03:06:36;;;;;;;15.02;5.35;;;;;;;15.44;100.00;95181.47;5059368;28;20446;-79
2023/10/01 03:09:03;;;;;;;11.77;5.60;;;;;;;15.28;100.00;95189.50;5058212;28;20124;-79
2023/10/01 03:11:40;;;;;;;10.27;5.10;;;;;;;15.31;100.00;95181.03;5059054;28;20028;-80
2023/10/01 03:14:10;;;;;;;11.57;5.72;;;;;;;15.29;100.00;95190.31;5057836;28;20028;-79
2023/10/01 03:16:53;;;;;;;11.70;5.43;;;;;;;15.22;100.00;95185.34;5042194;28;20028;-79
2023/10/01 03:19:25;;;;;;;9.90;5.13;;;;;;;15.16;100.00;95191.72;5054412;28;20511;-79
2023/10/01 03:24:31;;;;;;;12.35;5.40;;;;;;;15.15;100.00;95188.31;5038193;28;20036;-79
2023/10/01 03:27:39;;;;;;;12.48;5.60;;;;;;;15.04;100.00;95192.06;5044240;28;20025;-80
2023/10/01 03:29:48;;;;;;;12.10;5.80;;;;;;;14.95;100.00;95187.38;5045976;28;20163;-80
2023/10/01 03:32:29;;;;;;;13.52;5.70;;;;;;;14.95;100.00;95197.16;5057482;28;20033;-80
2023/10/01 03:35:07;;;;;;;9.77;6.07;;;;;;;14.98;100.00;95192.09;5074126;28;20039;-80
2023/10/01 03:37:38;;;;;;;9.40;5.43;;;;;;;14.92;100.00;95200.31;5042161;28;20033;-80
2023/10/01 03:40:18;;;;;;;11.15;5.90;;;;;;;14.95;100.00;95202.44;5057452;28;20025;-80
2023/10/01 03:42:50;;;;;;;10.73;5.20;;;;;;;14.96;100.00;95204.00;5042398;28;20039;-80
2023/10/01 03:45:26;;;;;;;14.38;4.90;;;;;;;15.00;100.00;95201.59;5056801;28;20115;-80
2023/10/01 03:47:57;;;;;;;11.77;5.72;;;;;;;15.08;100.00;95211.56;5041776;28;20341;-80
2023/10/01 03:50:25;;;;;;;9.50;5.30;;;;;;;15.01;100.00;95211.09;5041491;28;20033;-80
2023/10/01 03:52:54;;;;;;;9.43;5.18;;;;;;;15.13;100.00;95212.31;5057170;28;20082;-80
2023/10/01 03:55:27;;;;;;;32.92;6.40;;;;;;;15.31;100.00;95215.34;5056710;28;20025;-80
2023/10/01 03:58:06;;;;;;;;;;;;;;;15.45;100.00;95207.59;5057449;28;20033;-80
2023/10/01 04:00:41;;;;;;;11.85;5.65;;;;;;;15.54;100.00;95210.44;5042069;28;19955;-80
2023/10/01 04:03:08;;;;;;;12.75;5.18;;;;;;;15.37;100.00;95203.69;5057150;28;20120;-80
2023/10/01 04:05:34;;;;;;;10.55;5.10;;;;;;;15.33;100.00;95202.66;5040539;28;20461;-80
2023/10/01 04:08:09;;;;;;;12.52;5.43;;;;;;;15.35;100.00;95205.84;5056754;28;20120;-80
2023/10/01 04:10:38;;;;;;;7.95;5.20;;;;;;;15.28;100.00;95197.44;5056800;28;20039;-80
2023/10/01 04:13:20;;;;;;;11.30;5.85;;;;;;;15.45;100.00;95201.50;5057352;28;20033;-80
2023/10/01 04:15:49;;;;;;;17.50;6.22;;;;;;;15.38;100.00;95204.47;5056929;28;20040;-80
2023/10/01 04:21:28;;;;;;;8.98;5.50;;;;;;;15.11;100.00;95203.91;5056620;28;20332;-80
2023/10/01 04:23:36;;;;;;;13.43;5.82;;;;;;;15.12;100.00;95207.31;5049429;28;20098;-80
2023/10/01 04:26:06;;;;;;;18.58;6.32;;;;;;;15.24;100.00;95205.09;5056611;28;20025;-80
2023/10/01 04:28:34;;;;;;;12.68;5.60;;;;;;;15.11;100.00;95203.91;5056390;28;20024;-80
2023/10/01 04:31:03;;;;;;;9.65;5.43;;;;;;;15.09;100.00;95203.38;5056412;28;20032;-80
2023/10/01 04:33:31;;;;;;;11.23;5.53;;;;;;;14.90;100.00;95200.59;5056405;28;20032;-80
2023/10/01 04:35:58;;;;;;;10.65;5.50;;;;;;;14.90;100.00;95199.81;5057550;28;20029;-80
2023/10/01 04:38:29;;;;;;;16.27;5.80;;;;;;;14.95;100.00;95202.44;5056360;28;20072;-80
2023/10/01 04:40:55;;;;;;;14.68;5.32;;;;;;;14.98;100.00;95201.88;5056234;28;20435;-80
2023/10/01 04:43:21;;;;;;;9.00;4.78;;;;;;;14.88;100.00;95207.22;5056226;28;20033;-80
2023/10/01 04:45:47;;;;;;;9.45;4.93;;;;;;;14.83;100.00;95208.03;5039617;28;20450;-80
2023/10/01 04:48:20;;;;;;;11.13;5.63;;;;;;;14.88;100.00;95199.28;5056081;28;20032;-80
2023/10/01 04:50:46;;;;;;;10.82;5.45;;;;;;;14.83;100.00;95200.09;5056127;28;20036;-80
2023/10/01 04:53:13;;;;;;;9.57;5.53;;;;;;;14.85;100.00;95203.28;5057182;28;20032;-80
2023/10/01 04:55:42;;;;;;;14.32;6.55;;;;;;;14.66;100.00;95206.50;5072024;28;20346;-80
2023/10/01 04:58:12;;;;;;;11.88;6.20;;;;;;;14.67;100.00;95207.31;5055839;28;20032;-80
2023/10/01 05:00:46;;;;;;;11.43;5.85;;;;;;;14.63;100.00;95203.63;5055897;28;20021;-80
2023/10/01 05:03:15;;;;;;;8.68;5.30;;;;;;;14.60;100.00;95204.16;5039489;28;20036;-80
2023/10/01 05:05:44;;;;;;;10.50;5.65;;;;;;;14.88;100.00;95212.47;5051165;28;20040;-80
2023/10/01 05:08:12;;;;;;;10.35;5.55;;;;;;;14.75;100.00;95217.31;5056781;28;20033;-80
2023/10/01 05:10:51;;;;;;;11.10;6.00;;;;;;;14.69;100.00;95210.47;5055703;28;20116;-80
2023/10/01 05:13:22;;;;;;;13.00;5.25;;;;;;;14.77;100.00;95209.91;5055825;28;20123;-80
2023/10/01 05:15:56;;;;;;;13.65;5.60;;;;;;;14.76;100.00;95210.19;5039397;28;20418;-80
2023/10/01 05:18:22;;;;;;;12.38;5.85;;;;;;;14.56;100.00;95217.09;5055347;28;20082;-80
2023/10/01 05:20:48;;;;;;;15.13;5.88;;;;;;;14.61;100.00;95213.66;5039218;28;20029;-80
2023/10/01 05:23:15;;;;;;;11.05;5.32;;;;;;;14.65;100.00;95218.13;5056785;28;20362;-80
2023/10/01 05:25:45;;;;;;;8.77;5.35;;;;;;;14.70;100.00;95222.59;5056715;28;20056;-80
2023/10/01 05:28:23;;;;;;;9.85;5.90;;;;;;;14.87;100.00;95219.63;5056566;28;20029;-80
2023/10/01 05:30:57;;;;;;;10.75;5.45;;;;;;;14.69;100.00;95221.78;5055516;28;20036;-80
2023/10/01 05:33:32;;;;;;;8.93;5.03;;;;;;;14.70;100.00;95223.38;5056741;28;20056;-80
2023/10/01 05:36:00;;;;;;;9.65;5.07;;;;;;;14.76;100.00;95226.78;5056856;28;20029;-80
2023/10/01 05:38:28;;;;;;;9.80;4.90;;;;;;;14.90;100.00;95236.75;5055312;28;20032;-80
2023/10/01 05:40:57;;;;;;;13.23;5.22;;;;;;;15.01;100.00;95232.22;5055344;28;20456;-81
2023/10/01 05:43:27;;;;;;;8.48;5.15;;;;;;;14.97;100.00;95237.25;5055957;28;20024;-82
2023/10/01 05:45:53;;;;;;;18.02;5.10;;;;;;;14.97;100.00;95238.00;5055486;28;20036;-81
2023/10/01 05:48:20;;;;;;;9.13;4.72;;;;;;;15.09;100.00;95248.25;5055238;28;20028;-81
2023/10/01 05:50:46;;;;;;;8.35;5.03;;;;;;;15.22;100.00;95254.75;5055494;28;20049;-82
2023/10/01 05:53:13;;;;;;;8.57;4.55;;;;;;;15.28;100.00;95250.22;5054930;28;20032;-81
2023/10/01 05:55:43;;;;;;;9.20;5.43;;;;;;;15.45;100.00;95249.03;5055530;28;20033;-81
2023/10/01 05:58:19;;;;;;;6.90;4.78;;;;;;;15.52;100.00;95255.59;5055482;28;20033;-81
2023/10/01 06:00:57;;;;;;;7.03;4.57;;;;;;;15.67;100.00;95264.44;5056816;28;20024;-82
2023/10/01 06:03:24;;;;;;;8.80;4.90;;;;;;;15.78;100.00;95260.66;5055575;28;20033;-82
2023/10/01 06:05:50;;;;;;;8.48;4.65;;;;;;;15.96;100.00;95261.06;5055187;28;20032;-82
2023/10/01 06:08:24;;;;;;;9.20;4.95;;;;;;;16.01;100.00;95262.88;5058004;28;20021;-82
2023/10/01 06:10:59;;;;;;;9.07;4.80;;;;;;;15.92;100.00;95265.31;5059165;28;20032;-82
2023/10/01 06:13:28;;;;;;;8.40;4.85;;;;;;;16.02;100.00;95267.88;5060240;28;20029;-82
2023/10/01 06:16:11;;;;;;;7.32;4.25;;;;;;;16.23;100.00;95276.41;5059120;28;20442;-81
2023/10/01 06:18:41;;;;;;;7.40;4.53;;;;;;;16.41;100.00;95274.09;5058933;28;20408;-81
2023/10/01 06:21:10;;;;;;;9.88;4.90;;;;;;;16.54;100.00;95280.53;5042969;28;20263;-81
2023/10/01 06:23:49;;;;;;;11.63;5.38;;;;;;;16.71;100.00;95280.09;5058770;28;20025;-81
2023/10/01 06:26:33;;;;;;;7.68;4.50;;;;;;;16.71;100.00;95285.38;5058981;28;20020;-81
2023/10/01 06:29:01;;;;;;;10.32;5.28;;;;;;;16.87;100.00;95279.88;5058804;28;20029;-81
2023/10/01 06:31:27;;;;;;;11.63;4.65;;;;;;;16.96;100.00;95294.84;5059853;28;20116;-81
2023/10/01 06:33:57;;;;;;;9.45;4.80;;;;;;;16.79;100.00;95291.91;5058724;28;20060;-81
2023/10/01 06:36:23;;;;;;;6.15;4.45;;;;;;;17.08;100.00;95294.47;5041971;28;20036;-81
2023/10/01 06:38:54;;;;;;;10.20;5.00;;;;;;;17.31;100.00;95302.63;5058655;28;20422;-81
2023/10/01 06:41:25;;;;;;;6.60;4.40;;;;;;;17.41;100.00;95306.19;5059725;28;20017;-81
2023/10/01 06:43:54;;;;;;;6.65;4.60;;;;;;;17.49;100.00;95306.34;5058361;28;20029;-81
2023/10/01 06:46:27;;;;;;;7.93;4.70;;;;;;;17.46;100.00;95308.75;5055616;28;20025;-82
2023/10/01 06:48:58;;;;;;;10.50;4.60;;;;;;;17.66;100.00;95295.22;5038868;28;20462;-81
2023/10/01 06:51:25;;;;;;;12.18;5.53;;;;;;;17.41;100.00;95300.91;5022647;28;20439;-82
2023/10/01 06:53:59;;;;;;;8.68;4.90;;;;;;;17.58;100.00;95301.16;5038748;28;20427;-82
2023/10/01 06:56:32;;;;;;;8.20;4.53;;;;;;;17.80;100.00;95302.44;5038432;28;20160;-82
2023/10/01 07:01:34;;;;;;;9.63;5.22;;;;;;;18.06;100.00;95313.41;5038353;28;20021;-82
2023/10/01 07:04:05;;;;;;;10.52;5.57;;;;;;;18.16;100.00;95312.44;5035389;28;20032;-81
2023/10/01 07:06:36;;;;;;;9.07;5.07;;;;;;;18.15;100.00;95313.53;5038143;28;20056;-81
2023/10/01 07:11:50;;;;;;;12.13;5.55;;;;;;;18.12;100.00;95323.94;5038193;28;20090;-81
2023/10/01 07:14:18;;;;;;;10.95;5.63;;;;;;;18.29;100.00;95333.97;5037994;28;20076;-81
2023/10/01 07:16:44;;;;;;;8.38;5.10;;;;;;;18.17;100.00;95334.47;5038580;28;20128;-81
2023/10/01 07:19:13;;;;;;;10.55;5.60;;;;;;;18.28;100.00;95330.53;5053318;28;20116;-81
2023/10/01 07:21:45;;;;;;;11.90;5.32;;;;;;;18.14;100.00;95332.38;5057617;28;20112;-81
2023/10/01 07:24:11;;;;;;;9.35;5.40;;;;;;;18.21;100.00;95332.78;5058905;28;20021;-81
2023/10/01 07:26:40;;;;;;;12.20;5.22;;;;;;;18.18;100.00;95331.50;5055499;28;20021;-81
2023/10/01 07:29:08;;;;;;;9.13;5.35;;;;;;;18.35;100.00;95338.09;5057392;28;20091;-81
2023/10/01 07:31:37;;;;;;;9.23;5.35;;;;;;;18.35;100.00;95349.50;5058748;28;20492;-81
2023/10/01 07:34:12;;;;;;;8.30;5.22;;;;;;;18.23;100.00;95342.03;5057778;28;20086;-81
2023/10/01 07:36:42;;;;;;;9.68;5.40;;;;;;;18.23;100.00;95347.34;5042388;28;20060;-81
2023/10/01 07:39:13;;;;;;;8.55;5.68;;;;;;;18.29;100.00;95341.94;5041245;28;20029;-80
2023/10/01 07:41:39;;;;;;;8.20;5.15;;;;;;;18.45;100.00;95345.13;5057261;28;20020;-80
2023/10/01 07:44:08;;;;;;;11.75;4.97;;;;;;;18.32;100.00;95347.47;5040901;28;20029;-80
2023/10/01 07:46:36;;;;;;;8.60;5.10;;;;;;;18.61;100.00;95349.06;5058495;28;20181;-80
2023/10/01 07:49:05;;;;;;;8.50;5.18;;;;;;;18.71;100.00;95355.22;5041110;28;20021;-80
2023/10/01 07:51:36;;;;;;;7.07;4.65;;;;;;;18.88;100.00;95359.97;5058528;28;20418;-80
2023/10/01 07:54:09;;;;;;;9.95;5.13;;;;;;;18.96;100.00;95361.13;5057639;28;20029;-80
2023/10/01 07:56:36;;;;;;;11.40;5.45;;;;;;;18.99;100.00;95363.19;5041328;28;20383;-80
2023/10/01 07:59:28;;;;;;;8.13;4.63;;;;;;;19.06;100.00;95367.06;5058056;28;20025;-81
2023/10/01 08:03:28;;;;;;;6.70;4.78;;;;;;;19.31;100.00;95372.94;5044040;28;20028;-80
2023/10/01 08:07:16;;;;;;;8.90;4.90;;;;;;;19.57;100.00;95377.69;5056404;28;20032;-80
2023/10/01 08:09:46;;;;;;;9.02;4.75;;;;;;;19.67;100.00;95382.00;5056907;28;20028;-80
2023/10/01 08:12:15;;;;;;;10.55;5.03;;;;;;;19.89;100.00;95381.22;5052892;28;20052;-80
2023/10/01 08:14:40;;;;;;;7.97;5.07;;;;;;;19.94;100.00;95385.66;5045498;28;20064;-80
2023/10/01 08:17:08;;;;;;;11.45;5.13;;;;;;;20.06;100.00;95385.13;5038404;28;20049;-80
2023/10/01 08:19:45;;;;;;;17.52;5.20;;;;;;;20.18;100.00;95382.69;5037456;28;20111;-79
2023/10/01 08:22:15;;;;;;;15.40;4.88;;;;;;;20.17;100.00;95381.13;5050517;28;20020;-79
2023/10/01 08:24:45;;;;;;;15.23;5.68;;;;;;;20.23;100.00;95373.00;5040676;28;20032;-80
2023/10/01 08:27:31;;;;;;;11.52;4.93;;;;;;;20.45;100.00;95378.31;5056431;28;20079;-80
2023/10/01 08:30:18;;;;;;;9.18;5.07;;;;;;;20.48;100.00;95379.59;5056343;28;20079;-80
2023/10/01 08:32:51;;;;;;;9.70;4.93;;;;;;;20.56;100.00;95380.72;5042647;28;20025;-80
2023/10/01 08:35:34;;;;;;;9.43;4.90;;;;;;;20.62;100.00;95382.94;5056426;28;20021;-80
2023/10/01 08:38:00;;;;;;;9.20;5.03;;;;;;;20.83;100.00;95382.41;5042204;28;20431;-80
2023/10/01 08:40:29;;;;;;;9.27;4.95;;;;;;;21.08;100.00;95380.16;5056296;28;20071;-80
2023/10/01 08:42:58;;;;;;;8.25;4.88;;;;;;;20.97;100.00;95386.84;5056052;28;20032;-80
2023/10/01 08:45:37;;;;;;;9.30;4.80;;;;;;;21.09;100.00;95384.38;5056088;28;20029;-80
2023/10/01 08:48:05;;;;;;;12.82;4.50;;;;;;;21.18;100.00;95376.41;5037570;28;20031;-80
2023/10/01 08:50:36;;;;;;;10.43;4.90;;;;;;;21.20;94.71;95382.22;5055603;28;20028;-80
2023/10/01 08:53:09;;;;;;;7.20;4.60;;;;;;;21.20;84.27;95382.22;5055897;28;20032;-80
2023/10/01 08:55:39;;;;;;;6.80;3.35;;;;;;;21.36;70.78;95379.09;5055881;28;20082;-80
2023/10/01 08:58:25;;;;;;;8.55;3.30;;;;;;;21.39;69.21;95379.25;5055784;28;20020;-80
2023/10/01 09:00:53;;;;;;;10.07;4.60;;;;;;;21.50;76.70;95385.06;5040439;28;20125;-80
2023/10/01 09:03:39;;;;;;;10.05;3.10;;;;;;;21.56;70.72;95375.84;5057080;28;20031;-80
2023/10/01 09:06:24;;;;;;;7.82;3.30;;;;;;;21.65;61.77;95375.03;5055784;28;20115;-80
2023/10/01 09:08:59;;;;;;;7.85;3.80;;;;;;;21.69;65.07;95381.38;5042153;28;20025;-80
2023/10/01 09:11:49;;;;;;;5.95;3.55;;;;;;;21.66;64.96;95376.63;5040016;28;20029;-80
2023/10/01 09:14:17;;;;;;;8.15;3.60;;;;;;;21.74;65.71;95381.19;5056137;28;20025;-80
2023/10/01 09:16:44;;;;;;;8.52;3.47;;;;;;;21.82;63.48;95382.28;5039650;28;20334;-80
2023/10/01 09:19:35;;;;;;;9.48;3.10;;;;;;;21.78;63.74;95384.81;5055357;28;20028;-80
2023/10/01 09:22:22;;;;;;;8.40;3.03;;;;;;;22.05;58.42;95382.13;5055790;28;20027;-80
2023/10/01 09:25:01;;;;;;;9.52;3.10;;;;;;;22.00;59.58;95375.84;5040275;28;20340;-80
2023/10/01 09:27:30;;;;;;;5.60;2.55;;;;;;;22.14;55.24;95383.69;5040582;28;20060;-80
2023/10/01 09:30:26;;;;;;;20.27;3.95;;;;;;;22.23;55.00;95382.88;5055322;28;20058;-80
2023/10/01 09:32:54;;;;;;;5.15;2.75;;;;;;;22.25;52.20;95384.13;5055489;28;20031;-80
2023/10/01 09:35:30;;;;;;;7.45;2.70;;;;;;;22.38;49.49;95382.38;5055408;28;20031;-80
2023/10/01 09:38:18;;;;;;;3.78;2.50;;;;;;;22.41;48.25;95387.09;5054953;28;20500;-80
2023/10/01 09:40:45;;;;;;;5.95;3.00;;;;;;;22.48;52.53;95383.16;5045158;28;20033;-80
2023/10/01 09:43:19;;;;;;;7.70;2.90;;;;;;;22.54;50.03;95381.91;5051677;28;20029;-81
2023/10/01 09:45:51;;;;;;;6.05;2.70;;;;;;;22.55;49.28;95384.25;5054942;28;20021;-81
2023/10/01 09:48:34;;;;;;;5.10;2.90;;;;;;;22.76;52.18;95374.75;5055236;28;20025;-81
2023/10/01 09:51:15;;;;;;;5.28;2.90;;;;;;;22.90;53.49;95377.97;5054683;28;20029;-81
2023/10/01 09:53:50;;;;;;;8.48;3.00;;;;;;;22.83;51.53;95381.16;5044140;28;20033;-80
2023/10/01 09:56:26;;;;;;;10.02;2.92;;;;;;;22.80;50.16;95383.69;5068267;28;20411;-81
2023/10/01 09:59:07;;;;;;;9.90;3.47;;;;;;;22.85;50.13;95380.84;5054986;28;20323;-80
2023/10/01 10:01:35;;;;;;;7.65;2.80;;;;;;;22.84;48.58;95388.06;5055065;28;20028;-80
2023/10/01 10:04:02;;;;;;;6.22;3.13;;;;;;;23.10;51.51;95375.69;5055090;28;20389;-80
2023/10/01 10:06:29;;;;;;;5.55;2.97;;;;;;;23.23;49.95;95371.97;5038485;28;20034;-80
2023/10/01 10:09:04;;;;;;;10.55;2.92;;;;;;;23.30;47.00;95377.63;5054842;28;20437;-80
2023/10/01 10:11:36;;;;;;;8.05;2.95;;;;;;;23.38;47.71;95376.00;5054705;28;20037;-80
2023/10/01 10:14:02;;;;;;;9.30;3.08;;;;;;;23.25;49.72;95377.81;5039211;28;20423;-80
2023/10/01 10:16:34;;;;;;;6.75;3.13;;;;;;;23.38;47.78;95378.69;5054882;28;20163;-80
2023/10/01 10:19:13;;;;;;;8.52;3.10;;;;;;;23.60;45.45;95373.34;5054955;28;20426;-80
2023/10/01 10:24:28;;;;;;;4.63;2.65;;;;;;;23.71;42.98;95372.63;5055978;28;20029;-80
2023/10/01 10:26:58;;;;;;;5.78;2.55;;;;;;;23.53;43.14;95371.19;5071594;28;20033;-80
2023/10/01 10:29:24;;;;;;;10.00;2.95;;;;;;;23.60;44.12;95368.00;5038854;28;20033;-80
2023/10/01 10:32:09;;;;;;;5.45;3.00;;;;;;;23.22;45.86;95370.41;5054968;28;20040;-80
2023/10/01 10:34:47;;;;;;;6.70;2.83;;;;;;;23.65;45.79;95371.25;5040607;28;20029;-80
2023/10/01 10:37:35;;;;;;;11.63;2.80;;;;;;;23.64;47.07;95358.22;5034541;28;20084;-80
2023/10/01 10:40:12;;;;;;;7.45;3.28;;;;;;;23.88;47.79;95356.75;5034577;28;20033;-80
2023/10/01 10:42:46;;;;;;;7.05;3.15;;;;;;;24.00;48.66;95364.84;5034817;28;20124;-81
2023/10/01 10:45:21;;;;;;;7.15;2.85;;;;;;;24.13;47.43;95363.00;5034747;28;20033;-81
2023/10/01 10:48:04;;;;;;;8.93;3.53;;;;;;;24.24;49.77;95360.69;5034663;28;20039;-81
2023/10/01 10:50:47;;;;;;;6.53;3.65;;;;;;;24.18;48.90;95365.50;5048713;28;20087;-80
2023/10/01 10:53:17;;;;;;;9.50;3.63;;;;;;;24.22;49.52;95360.22;5040745;28;20033;-80
2023/10/01 10:56:08;;;;;;;8.02;3.60;;;;;;;24.45;50.57;95363.28;5039076;28;20431;-80
2023/10/01 10:59:01;;;;;;;10.73;4.00;;;;;;;24.36;49.55;95360.72;5038060;28;20083;-80
2023/10/01 11:01:43;;;;;;;9.43;3.30;;;;;;;24.52;49.33;95360.06;5038028;28;20036;-80
2023/10/01 11:04:09;;;;;;;10.45;3.22;;;;;;;24.53;49.83;95357.06;5038242;28;20049;-80
2023/10/01 11:06:43;;;;;;;6.88;3.40;;;;;;;24.66;50.05;95359.75;5038026;28;20338;-80
2023/10/01 11:09:25;;;;;;;9.80;3.35;;;;;;;24.66;49.89;95360.53;5037959;28;20035;-81
2023/10/01 11:12:05;;;;;;;6.90;3.25;;;;;;;24.30;50.54;95351.34;5037668;28;20455;-80
2023/10/01 11:14:36;;;;;;;7.30;3.60;;;;;;;24.19;50.66;95342.16;5021770;28;20033;-80
2023/10/01 11:17:03;;;;;;;7.53;3.60;;;;;;;24.45;53.05;95341.09;5051359;28;20079;-80
2023/10/01 11:19:35;;;;;;;10.23;4.38;;;;;;;24.36;52.68;95341.97;5029929;28;20399;-80
2023/10/01 11:22:02;;;;;;;8.70;3.78;;;;;;;24.35;54.66;95332.38;5046733;28;20082;-80
2023/10/01 11:24:36;;;;;;;10.15;4.28;;;;;;;24.34;55.24;95338.06;5058020;28;20075;-80
2023/10/01 11:27:25;;;;;;;8.02;3.90;;;;;;;24.22;55.21;95334.25;5057383;28;20337;-80
2023/10/01 11:30:21;;;;;;;9.52;4.72;;;;;;;23.98;57.02;95329.59;5057630;28;20033;-80
2023/10/01 11:35:35;;;;;;;12.15;4.90;;;;;;;23.88;58.80;95324.66;5057738;28;20111;-80
2023/10/01 11:38:12;;;;;;;12.35;4.25;;;;;;;23.82;56.83;95319.50;5056865;28;20021;-80
2023/10/01 11:43:27;;;;;;;11.88;4.32;;;;;;;24.07;55.96;95318.84;5057532;28;20151;-80
2023/10/01 11:46:21;;;;;;;9.00;4.28;;;;;;;24.07;55.21;95324.19;5040661;28;20021;-80
2023/10/01 11:48:56;;;;;;;;;;;;;;;23.90;54.34;95319.75;5057373;28;20040;-80
2023/10/01 11:52:21;;;;;;;7.20;4.18;;;;;;;23.52;54.55;95318.81;5041987;28;20007;-80
2023/10/01 11:54:44;;;;;;;5.30;3.60;;;;;;;23.74;53.70;95317.69;5043543;28;20040;-80
2023/10/01 11:57:25;;;;;;;12.05;3.97;;;;;;;23.65;53.20;95308.94;5058135;28;20029;-80
2023/10/01 11:59:56;;;;;;;11.90;4.30;;;;;;;23.94;54.08;95313.41;5049726;28;20025;-80
2023/10/01 12:02:26;;;;;;;13.68;4.47;;;;;;;23.86;53.46;95319.63;5043627;28;20143;-79
2023/10/01 12:04:57;;;;;;;6.97;3.75;;;;;;;23.56;51.91;95312.50;5057743;28;20028;-80
2023/10/01 12:07:43;;;;;;;11.80;4.03;;;;;;;23.52;52.94;95314.25;5056567;28;20482;-80
2023/10/01 12:12:54;;;;;;;11.23;4.15;;;;;;;23.65;55.32;95304.38;5056953;28;20036;-80